Time;durP1;ratioP1;P1;durP2;ratioP2;P2;SDS_P1;SDS_P2;PMS_P1;PMS_P2;Temp;Humidity;BMP_temperature;BMP_pressure;BME280_temperature;BME280_humidity;BME280_pressure;Samples;Min_cycle;Max_cycle;Signal;HPM_P1;HPM_P2
2024/01/06 00:00:56;;;;;;;40.60;14.97;;;;;;;;;;4957584;29;20035;-59
2024/01/06 00:03:21;;;;;;;40.50;15.40;;;;;;;;;;4964394;29;20275;-59
2024/01/06 00:05:47;;;;;;;31.20;13.90;;;;;;;;;;4952777;29;20043;-59
2024/01/06 00:08:12;;;;;;;32.67;13.17;;;;;;;;;;4959375;29;20040;-59
2024/01/06 00:10:38;;;;;;;39.75;15.77;;;;;;;;;;4928085;29;20042;-60
2024/01/06 00:13:03;;;;;;;31.30;13.43;;;;;;;;;;4960409;29;20053;-58
2024/01/06 00:15:28;;;;;;;30.60;12.47;;;;;;;;;;4959419;28;20358;-58
2024/01/06 00:17:54;;;;;;;39.40;15.93;;;;;;;;;;4952445;29;20034;-59
2024/01/06 00:20:19;;;;;;;35.50;13.63;;;;;;;;;;4957475;29;20043;-59
2024/01/06 00:22:45;;;;;;;38.10;15.67;;;;;;;;;;4962600;29;20091;-58
2024/01/06 00:25:10;;;;;;;30.53;13.47;;;;;;;;;;4961115;29;20024;-59
2024/01/06 00:27:35;;;;;;;42.03;15.60;;;;;;;;;;4968217;29;20292;-58
2024/01/06 00:30:00;;;;;;;37.23;15.80;;;;;;;;;;4968883;29;20058;-58
2024/01/06 00:32:26;;;;;;;32.77;13.37;;;;;;;;;;4959328;29;20028;-57
2024/01/06 00:34:51;;;;;;;17.42;8.35;;;;;;;;;;4965204;29;20031;-58
2024/01/06 00:37:17;;;;;;;25.27;11.53;;;;;;;;;;4961701;29;20063;-60
2024/01/06 00:39:42;;;;;;;20.60;9.23;;;;;;;;;;4957068;29;20270;-58
2024/01/06 00:42:08;;;;;;;16.67;7.53;;;;;;;;;;4967199;29;20266;-58
2024/01/06 00:44:35;;;;;;;32.23;12.13;;;;;;;;;;4962917;29;20036;-59
2024/01/06 00:47:01;;;;;;;27.93;12.50;;;;;;;;;;4955232;29;20360;-59
2024/01/06 00:49:27;;;;;;;29.17;10.25;;;;;;;;;;4957206;29;20301;-58
2024/01/06 00:51:52;;;;;;;26.70;11.40;;;;;;;;;;4961120;29;20031;-56
2024/01/06 00:54:18;;;;;;;28.03;12.97;;;;;;;;;;4961305;29;20281;-53
2024/01/06 00:56:43;;;;;;;29.27;13.33;;;;;;;;;;4958998;29;20055;-56
2024/01/06 00:59:09;;;;;;;23.80;10.35;;;;;;;;;;4962605;29;20035;-59
2024/01/06 01:01:34;;;;;;;12.10;5.23;;;;;;;;;;4957020;29;20036;-58
2024/01/06 01:03:59;;;;;;;16.43;7.67;;;;;;;;;;4956637;29;20035;-58
2024/01/06 01:06:25;;;;;;;20.52;10.20;;;;;;;;;;4966080;29;20030;-58
2024/01/06 01:08:51;;;;;;;20.00;8.40;;;;;;;;;;4956843;29;20035;-59
2024/01/06 01:11:16;;;;;;;24.30;10.25;;;;;;;;;;4956827;29;20032;-58
2024/01/06 01:13:41;;;;;;;26.87;11.67;;;;;;;;;;4961362;29;20036;-60
2024/01/06 01:16:07;;;;;;;15.77;7.28;;;;;;;;;;4963548;29;20060;-56
2024/01/06 01:18:33;;;;;;;24.58;10.20;;;;;;;;;;4957230;29;20067;-59
2024/01/06 01:20:58;;;;;;;21.57;9.93;;;;;;;;;;4941569;29;20028;-57
2024/01/06 01:23:23;;;;;;;21.33;10.00;;;;;;;;;;4958112;29;20032;-59
2024/01/06 01:25:49;;;;;;;20.97;9.87;;;;;;;;;;4961238;29;20062;-58
2024/01/06 01:28:14;;;;;;;12.80;6.55;;;;;;;;;;4960930;29;20032;-56
2024/01/06 01:30:40;;;;;;;16.63;7.70;;;;;;;;;;4960563;29;20036;-57
2024/01/06 01:33:05;;;;;;;20.70;10.53;;;;;;;;;;4961136;29;20346;-58
2024/01/06 01:35:30;;;;;;;15.87;8.43;;;;;;;;;;4964766;29;20049;-58
2024/01/06 01:37:55;;;;;;;16.00;7.87;;;;;;;;;;4960619;29;20059;-58
2024/01/06 01:40:21;;;;;;;17.20;8.70;;;;;;;;;;4960278;29;20047;-55
2024/01/06 01:42:46;;;;;;;16.63;7.63;;;;;;;;;;4968983;29;20269;-58
2024/01/06 01:45:12;;;;;;;20.33;9.10;;;;;;;;;;4964658;29;20095;-53
2024/01/06 01:47:39;;;;;;;24.95;10.77;;;;;;;;;;4960582;29;20054;-55
2024/01/06 01:50:04;;;;;;;20.65;9.93;;;;;;;;;;4960473;29;20035;-59
2024/01/06 01:52:30;;;;;;;20.90;9.02;;;;;;;;;;4965298;29;20050;-58
2024/01/06 01:54:56;;;;;;;20.20;9.70;;;;;;;;;;4963925;29;20074;-58
2024/01/06 01:57:23;;;;;;;17.83;8.57;;;;;;;;;;4967732;29;20064;-58
2024/01/06 01:59:49;;;;;;;15.03;6.63;;;;;;;;;;4961730;29;20036;-57
2024/01/06 02:02:15;;;;;;;20.47;9.00;;;;;;;;;;4961754;29;20344;-55
2024/01/06 02:04:40;;;;;;;12.85;6.82;;;;;;;;;;4961443;29;20027;-57
2024/01/06 02:07:06;;;;;;;20.70;9.35;;;;;;;;;;4962027;29;20048;-56
2024/01/06 02:09:31;;;;;;;11.90;6.13;;;;;;;;;;4959724;29;20083;-58
2024/01/06 02:11:58;;;;;;;13.98;6.50;;;;;;;;;;4959933;29;20645;-56
2024/01/06 02:14:23;;;;;;;17.80;8.63;;;;;;;;;;4960989;29;20059;-58
2024/01/06 02:16:48;;;;;;;15.03;6.83;;;;;;;;;;4961592;29;20043;-58
2024/01/06 02:19:15;;;;;;;21.48;11.18;;;;;;;;;;4959689;29;20042;-57
2024/01/06 02:21:41;;;;;;;18.52;7.85;;;;;;;;;;4959694;29;20042;-57
2024/01/06 02:24:07;;;;;;;20.23;9.68;;;;;;;;;;4968955;29;20070;-58
2024/01/06 02:26:32;;;;;;;17.77;7.95;;;;;;;;;;4963918;29;20031;-58
2024/01/06 02:28:58;;;;;;;16.60;7.50;;;;;;;;;;4961830;29;20075;-57
2024/01/06 02:31:23;;;;;;;18.60;9.23;;;;;;;;;;4964286;29;20274;-56
2024/01/06 02:33:49;;;;;;;20.15;9.55;;;;;;;;;;4968853;29;20040;-54
2024/01/06 02:36:14;;;;;;;15.53;7.30;;;;;;;;;;4970884;29;20066;-56
2024/01/06 02:38:39;;;;;;;31.37;10.13;;;;;;;;;;4953969;29;20032;-55
2024/01/06 02:41:04;;;;;;;19.57;9.53;;;;;;;;;;4959511;29;20032;-55
2024/01/06 02:43:30;;;;;;;20.83;10.05;;;;;;;;;;4945850;29;20082;-56
2024/01/06 02:45:55;;;;;;;20.60;9.50;;;;;;;;;;4962433;29;20060;-57
2024/01/06 02:48:21;;;;;;;9.90;5.30;;;;;;;;;;4955052;29;20345;-57
2024/01/06 02:50:46;;;;;;;19.17;7.70;;;;;;;;;;4967167;29;20039;-58
2024/01/06 02:53:12;;;;;;;13.50;5.70;;;;;;;;;;4962863;29;20035;-57
2024/01/06 02:55:38;;;;;;;27.57;12.80;;;;;;;;;;4963400;29;20066;-57
2024/01/06 02:58:03;;;;;;;20.50;9.75;;;;;;;;;;4963230;29;20024;-59
2024/01/06 03:00:29;;;;;;;26.98;11.35;;;;;;;;;;4958957;29;20047;-58
2024/01/06 03:02:55;;;;;;;26.20;10.40;;;;;;;;;;4959757;29;20094;-57
2024/01/06 03:05:20;;;;;;;21.10;10.10;;;;;;;;;;4962348;29;20042;-58
2024/01/06 03:07:45;;;;;;;17.43;7.73;;;;;;;;;;4958948;29;20274;-57
2024/01/06 03:10:11;;;;;;;26.87;11.90;;;;;;;;;;4958747;29;20039;-57
2024/01/06 03:12:36;;;;;;;20.20;10.60;;;;;;;;;;4942210;29;20150;-57
2024/01/06 03:15:01;;;;;;;24.13;10.80;;;;;;;;;;4965162;29;20046;-58
2024/01/06 03:17:28;;;;;;;26.08;10.48;;;;;;;;;;4966260;29;20032;-56
2024/01/06 03:19:54;;;;;;;22.80;9.75;;;;;;;;;;4970133;29;20084;-58
2024/01/06 03:22:19;;;;;;;22.13;9.47;;;;;;;;;;4959181;29;20036;-57
2024/01/06 03:24:44;;;;;;;26.00;11.23;;;;;;;;;;4961225;29;20027;-60
2024/01/06 03:27:10;;;;;;;22.98;9.77;;;;;;;;;;4966767;29;20043;-57
2024/01/06 03:29:35;;;;;;;18.60;9.48;;;;;;;;;;4969999;29;20027;-57
2024/01/06 03:32:01;;;;;;;15.03;7.07;;;;;;;;;;4959443;29;20043;-53
2024/01/06 03:34:26;;;;;;;22.98;9.68;;;;;;;;;;4958896;29;20173;-57
2024/01/06 03:36:52;;;;;;;17.58;8.30;;;;;;;;;;4967789;29;20054;-57
2024/01/06 03:39:17;;;;;;;20.70;8.40;;;;;;;;;;4972524;29;20046;-57
2024/01/06 03:41:43;;;;;;;11.68;6.55;;;;;;;;;;4961202;29;20487;-59
2024/01/06 03:44:09;;;;;;;25.30;10.47;;;;;;;;;;4970724;29;20051;-58
2024/01/06 03:46:34;;;;;;;19.97;9.77;;;;;;;;;;4964244;29;20382;-59
2024/01/06 03:49:00;;;;;;;17.70;8.82;;;;;;;;;;4963461;29;20031;-59
2024/01/06 03:51:25;;;;;;;22.80;9.47;;;;;;;;;;4958123;29;20046;-60
2024/01/06 03:53:51;;;;;;;24.85;10.18;;;;;;;;;;4957796;29;20059;-60
2024/01/06 03:56:16;;;;;;;20.60;8.67;;;;;;;;;;4957815;29;20051;-59
2024/01/06 03:58:41;;;;;;;25.70;11.20;;;;;;;;;;4957976;29;20066;-58
2024/01/06 04:01:06;;;;;;;28.30;11.27;;;;;;;;;;4937740;29;20027;-58
2024/01/06 04:03:32;;;;;;;19.80;9.90;;;;;;;;;;4960247;29;20032;-59
2024/01/06 04:05:57;;;;;;;21.33;10.13;;;;;;;;;;4961501;29;20344;-59
2024/01/06 04:08:23;;;;;;;19.17;8.57;;;;;;;;;;4963827;29;20032;-58
2024/01/06 04:10:49;;;;;;;19.63;9.17;;;;;;;;;;4957804;29;20258;-58
2024/01/06 04:13:15;;;;;;;23.65;11.02;;;;;;;;;;4957649;29;20039;-59
2024/01/06 04:15:40;;;;;;;15.70;8.05;;;;;;;;;;4941558;29;20108;-58
2024/01/06 04:18:06;;;;;;;21.43;9.63;;;;;;;;;;4957712;29;20036;-62
2024/01/06 04:20:32;;;;;;;16.90;8.15;;;;;;;;;;4957833;29;20026;-57
2024/01/06 04:22:58;;;;;;;21.33;9.10;;;;;;;;;;4959232;29;20036;-58
2024/01/06 04:25:24;;;;;;;20.88;9.02;;;;;;;;;;4969436;29;20031;-58
2024/01/06 04:27:49;;;;;;;17.20;7.97;;;;;;;;;;4958649;29;20059;-59
2024/01/06 04:30:15;;;;;;;18.87;7.80;;;;;;;;;;4957694;29;20028;-58
2024/01/06 04:32:41;;;;;;;17.80;7.88;;;;;;;;;;4958111;29;20302;-58
2024/01/06 04:35:07;;;;;;;13.32;6.90;;;;;;;;;;4960671;29;20103;-57
2024/01/06 04:37:32;;;;;;;28.03;11.13;;;;;;;;;;4953663;29;20095;-58
2024/01/06 04:39:57;;;;;;;12.37;6.03;;;;;;;;;;4953212;29;20048;-58
2024/01/06 04:42:23;;;;;;;13.02;6.88;;;;;;;;;;4957304;29;20056;-57
2024/01/06 04:44:49;;;;;;;26.37;10.27;;;;;;;;;;4957257;29;20047;-59
2024/01/06 04:47:14;;;;;;;20.30;7.85;;;;;;;;;;4957430;29;20050;-58
2024/01/06 04:49:39;;;;;;;11.70;5.27;;;;;;;;;;4958517;29;20055;-57
2024/01/06 04:52:04;;;;;;;20.07;8.93;;;;;;;;;;4957245;29;20042;-57
2024/01/06 04:54:30;;;;;;;14.13;6.87;;;;;;;;;;4957919;29;20042;-58
2024/01/06 04:56:56;;;;;;;15.32;6.45;;;;;;;;;;4963880;29;20031;-58
2024/01/06 04:59:21;;;;;;;10.70;5.03;;;;;;;;;;4968494;29;20055;-57
2024/01/06 05:01:47;;;;;;;22.10;9.23;;;;;;;;;;4956240;29;20051;-57
2024/01/06 05:04:13;;;;;;;11.13;4.63;;;;;;;;;;4966406;29;20258;-53
2024/01/06 05:06:38;;;;;;;12.17;5.07;;;;;;;;;;4968438;29;20042;-56
2024/01/06 05:09:04;;;;;;;16.93;7.47;;;;;;;;;;4966031;29;20273;-55
2024/01/06 05:11:29;;;;;;;24.98;11.40;;;;;;;;;;4956935;29;20041;-56
2024/01/06 05:13:55;;;;;;;17.60;7.63;;;;;;;;;;4956711;29;20039;-56
2024/01/06 05:16:20;;;;;;;17.10;7.40;;;;;;;;;;4964135;29;20278;-57
2024/01/06 05:18:46;;;;;;;16.05;6.07;;;;;;;;;;4956577;29;20095;-57
2024/01/06 05:21:11;;;;;;;32.37;12.20;;;;;;;;;;4956636;29;20040;-58
2024/01/06 05:23:37;;;;;;;25.63;10.07;;;;;;;;;;4950218;29;20502;-55
2024/01/06 05:26:02;;;;;;;17.55;7.63;;;;;;;;;;4961096;29;20055;-59
2024/01/06 05:28:28;;;;;;;17.70;7.57;;;;;;;;;;4958025;29;20103;-59
2024/01/06 05:30:53;;;;;;;21.23;9.03;;;;;;;;;;4956661;29;20043;-59
2024/01/06 05:33:19;;;;;;;24.70;10.70;;;;;;;;;;4956684;29;20266;-59
2024/01/06 05:35:44;;;;;;;15.83;7.80;;;;;;;;;;4961376;29;20113;-59
2024/01/06 05:38:09;;;;;;;15.57;6.80;;;;;;;;;;4951789;29;20047;-58
2024/01/06 05:40:35;;;;;;;11.97;5.63;;;;;;;;;;4956397;29;20023;-55
2024/01/06 05:43:00;;;;;;;32.60;12.03;;;;;;;;;;4956732;29;20044;-59
2024/01/06 05:45:26;;;;;;;21.73;10.10;;;;;;;;;;4958205;29;20031;-58
2024/01/06 05:47:51;;;;;;;23.90;10.20;;;;;;;;;;4956283;29;20043;-56
2024/01/06 05:50:17;;;;;;;17.70;7.93;;;;;;;;;;4968641;29;20083;-55
2024/01/06 05:52:42;;;;;;;25.73;10.20;;;;;;;;;;4964805;29;20285;-59
2024/01/06 05:55:08;;;;;;;18.03;7.33;;;;;;;;;;4957675;29;20044;-55
2024/01/06 05:57:34;;;;;;;13.35;6.45;;;;;;;;;;4957369;29;20266;-56
2024/01/06 05:59:59;;;;;;;23.27;10.47;;;;;;;;;;4956332;29;20076;-58
2024/01/06 06:02:24;;;;;;;23.40;9.90;;;;;;;;;;4957432;29;20835;-55
2024/01/06 06:04:49;;;;;;;18.97;9.40;;;;;;;;;;4956033;29;20095;-56
2024/01/06 06:07:15;;;;;;;27.55;11.65;;;;;;;;;;4963925;29;20043;-58
2024/01/06 06:09:40;;;;;;;25.37;11.30;;;;;;;;;;4956378;29;20032;-58
2024/01/06 06:12:06;;;;;;;18.30;6.87;;;;;;;;;;4956901;29;20032;-59
2024/01/06 06:14:32;;;;;;;24.20;11.48;;;;;;;;;;4959803;29;20036;-58
2024/01/06 06:16:57;;;;;;;25.93;11.57;;;;;;;;;;4959813;29;20050;-56
2024/01/06 06:19:22;;;;;;;25.70;11.97;;;;;;;;;;4961933;29;20024;-58
2024/01/06 06:21:48;;;;;;;19.45;9.05;;;;;;;;;;4959613;29;20039;-58
2024/01/06 06:24:14;;;;;;;30.10;13.33;;;;;;;;;;4959608;29;20040;-59
2024/01/06 06:26:39;;;;;;;26.00;11.32;;;;;;;;;;4970252;29;20035;-57
2024/01/06 06:29:04;;;;;;;20.10;9.27;;;;;;;;;;4965754;29;20079;-59
2024/01/06 06:31:30;;;;;;;28.15;10.32;;;;;;;;;;4959529;29;20062;-58
2024/01/06 06:33:56;;;;;;;25.87;12.37;;;;;;;;;;4959752;29;20043;-58
2024/01/06 06:36:21;;;;;;;29.80;12.33;;;;;;;;;;4958924;29;20051;-58
2024/01/06 06:38:47;;;;;;;21.65;10.50;;;;;;;;;;4955495;29;20035;-58
2024/01/06 06:41:12;;;;;;;23.63;11.47;;;;;;;;;;4959199;29;20047;-57
2024/01/06 06:43:38;;;;;;;28.77;10.77;;;;;;;;;;4959159;29;20031;-56
2024/01/06 06:46:04;;;;;;;19.73;9.30;;;;;;;;;;4958721;29;20036;-59
2024/01/06 06:48:29;;;;;;;22.43;10.43;;;;;;;;;;4969189;29;20071;-59
2024/01/06 06:50:55;;;;;;;28.92;12.77;;;;;;;;;;4958988;29;20031;-58
2024/01/06 06:53:20;;;;;;;23.83;9.70;;;;;;;;;;4959090;29;20043;-57
2024/01/06 06:55:45;;;;;;;28.23;11.10;;;;;;;;;;4959838;29;20107;-56
2024/01/06 06:58:11;;;;;;;25.70;12.57;;;;;;;;;;4965894;29;20273;-59
2024/01/06 07:00:37;;;;;;;32.03;13.53;;;;;;;;;;4959264;29;20039;-56
2024/01/06 07:03:03;;;;;;;24.67;11.32;;;;;;;;;;4959126;29;20028;-59
2024/01/06 07:05:28;;;;;;;24.53;12.27;;;;;;;;;;4958933;29;20071;-58
2024/01/06 07:07:54;;;;;;;27.27;12.13;;;;;;;;;;4969641;29;20281;-60
2024/01/06 07:10:20;;;;;;;26.67;12.27;;;;;;;;;;4972581;29;20035;-58
2024/01/06 07:12:45;;;;;;;26.43;10.60;;;;;;;;;;4958880;29;20039;-58
2024/01/06 07:15:11;;;;;;;18.43;8.57;;;;;;;;;;4941971;29;20293;-56
2024/01/06 07:17:38;;;;;;;15.30;7.80;;;;;;;;;;4960462;29;20030;-54
2024/01/06 07:20:03;;;;;;;;;;;;;;;;;;4963485;28;20121;-57
2024/01/06 07:22:29;;;;;;;25.77;9.73;;;;;;;;;;4958853;29;19898;-59
2024/01/06 07:24:54;;;;;;;20.17;9.00;;;;;;;;;;4957844;29;20035;-59
2024/01/06 07:27:20;;;;;;;23.60;8.10;;;;;;;;;;4962471;29;20099;-59
2024/01/06 07:29:46;;;;;;;29.75;12.15;;;;;;;;;;4958395;29;20043;-58
2024/01/06 07:32:12;;;;;;;24.90;10.93;;;;;;;;;;4958750;29;20099;-58
2024/01/06 07:34:37;;;;;;;30.03;13.20;;;;;;;;;;4958341;29;20036;-55
2024/01/06 07:37:03;;;;;;;26.90;11.75;;;;;;;;;;4957346;29;20274;-57
2024/01/06 07:39:28;;;;;;;33.07;13.20;;;;;;;;;;4967585;29;20051;-57
2024/01/06 07:41:54;;;;;;;24.98;10.02;;;;;;;;;;4968032;29;20035;-57
2024/01/06 07:44:24;;;;;;;27.50;11.17;;;;;;;;;;4958320;29;20040;-58
2024/01/06 07:46:51;;;;;;;27.30;11.90;;;;;;;;;;4962749;29;20035;-54
2024/01/06 07:49:16;;;;;;;32.80;13.55;;;;;;;;;;4958984;29;20067;-59
2024/01/06 07:51:42;;;;;;;21.27;9.57;;;;;;;;;;4958003;29;20031;-59
2024/01/06 07:54:08;;;;;;;29.10;12.10;;;;;;;;;;4957756;29;20301;-53
2024/01/06 07:56:34;;;;;;;23.88;11.05;;;;;;;;;;4942175;29;20038;-58
2024/01/06 07:59:00;;;;;;;25.07;12.23;;;;;;;;;;4962828;29;20051;-58
2024/01/06 08:01:25;;;;;;;26.40;12.57;;;;;;;;;;4941185;29;20043;-57
2024/01/06 08:03:50;;;;;;;26.80;11.15;;;;;;;;;;4957493;29;20028;-59
2024/01/06 08:06:16;;;;;;;22.57;11.13;;;;;;;;;;4957849;29;20059;-57
2024/01/06 08:08:41;;;;;;;24.10;11.27;;;;;;;;;;4960330;29;20040;-57
2024/01/06 08:11:07;;;;;;;26.63;10.07;;;;;;;;;;4957880;29;20067;-57
2024/01/06 08:13:33;;;;;;;18.52;8.15;;;;;;;;;;4957613;29;20031;-56
2024/01/06 08:15:59;;;;;;;25.00;11.90;;;;;;;;;;4940904;29;20045;-57
2024/01/06 08:18:24;;;;;;;23.15;9.88;;;;;;;;;;4969699;29;20035;-58
2024/01/06 08:20:50;;;;;;;29.13;10.07;;;;;;;;;;4970321;29;20031;-55
2024/01/06 08:23:17;;;;;;;21.50;10.47;;;;;;;;;;4962959;29;20043;-57
2024/01/06 08:25:44;;;;;;;24.02;11.27;;;;;;;;;;4945236;29;20063;-56
2024/01/06 08:28:09;;;;;;;20.52;11.30;;;;;;;;;;4959128;29;20039;-56
2024/01/06 08:30:34;;;;;;;16.43;8.97;;;;;;;;;;4963850;29;20055;-56
2024/01/06 08:33:00;;;;;;;24.33;11.50;;;;;;;;;;4956721;29;20031;-56
2024/01/06 08:35:26;;;;;;;21.65;10.63;;;;;;;;;;4956903;29;20092;-56
2024/01/06 08:37:51;;;;;;;16.17;7.70;;;;;;;;;;4962907;29;20031;-57
2024/01/06 08:40:17;;;;;;;25.48;11.32;;;;;;;;;;4956680;29;20039;-59
2024/01/06 08:42:43;;;;;;;17.97;9.83;;;;;;;;;;4956609;29;20091;-58
2024/01/06 08:45:08;;;;;;;24.23;12.13;;;;;;;;;;4956936;29;20044;-53
2024/01/06 08:47:35;;;;;;;13.75;8.20;;;;;;;;;;4959784;29;20031;-58
2024/01/06 08:50:00;;;;;;;17.87;9.33;;;;;;;;;;4956337;29;20032;-58
2024/01/06 08:52:26;;;;;;;17.20;9.45;;;;;;;;;;4956448;29;20135;-56
2024/01/06 08:54:51;;;;;;;20.03;9.87;;;;;;;;;;4956428;29;20039;-58
2024/01/06 08:57:16;;;;;;;11.10;5.10;;;;;;;;;;4957208;29;20087;-58
2024/01/06 08:59:42;;;;;;;23.13;11.23;;;;;;;;;;4960464;29;20063;-58
2024/01/06 09:02:07;;;;;;;14.10;6.13;;;;;;;;;;4972385;29;20055;-55
2024/01/06 09:04:32;;;;;;;24.50;9.53;;;;;;;;;;4956674;29;20038;-53
2024/01/06 09:06:58;;;;;;;16.95;8.02;;;;;;;;;;4956471;29;20035;-55
2024/01/06 09:09:24;;;;;;;21.88;10.18;;;;;;;;;;4950509;29;20042;-59
2024/01/06 09:11:49;;;;;;;19.30;10.57;;;;;;;;;;4956783;29;20055;-58
2024/01/06 09:14:17;;;;;;;17.80;9.67;;;;;;;;;;4956135;29;20040;-57
2024/01/06 09:16:42;;;;;;;18.48;9.85;;;;;;;;;;4956224;29;20339;-59
2024/01/06 09:19:07;;;;;;;16.87;9.63;;;;;;;;;;4957484;29;20045;-59
2024/01/06 09:21:33;;;;;;;18.30;9.27;;;;;;;;;;4959816;29;20091;-60
2024/01/06 09:23:58;;;;;;;20.60;9.93;;;;;;;;;;4956132;29;20059;-57
2024/01/06 09:26:23;;;;;;;16.90;7.53;;;;;;;;;;4956340;29;20042;-57
2024/01/06 09:28:49;;;;;;;17.80;10.60;;;;;;;;;;4953804;29;20028;-54
2024/01/06 09:31:14;;;;;;;19.23;10.47;;;;;;;;;;4956017;29;20035;-55
2024/01/06 09:33:40;;;;;;;16.90;8.97;;;;;;;;;;4956792;29;20036;-56
2024/01/06 09:36:05;;;;;;;15.13;7.43;;;;;;;;;;4956605;29;20095;-56
2024/01/06 09:38:30;;;;;;;16.30;9.40;;;;;;;;;;4959270;29;20024;-56
2024/01/06 09:40:57;;;;;;;17.15;7.60;;;;;;;;;;4956084;29;20040;-58
2024/01/06 09:43:23;;;;;;;16.90;6.82;;;;;;;;;;4956304;29;20040;-56
2024/01/06 09:45:57;;;;;;;20.60;9.30;;;;;;;;;;4956463;29;20044;-56
2024/01/06 09:48:26;;;;;;;15.15;7.90;;;;;;;;;;4958815;29;20262;-56
2024/01/06 09:50:54;;;;;;;21.45;9.05;;;;;;;;;;4968096;29;20039;-58
2024/01/06 09:53:20;;;;;;;16.00;9.48;;;;;;;;;;4954290;29;20042;-57
2024/01/06 09:55:51;;;;;;;16.47;8.37;;;;;;;;;;4959542;29;20040;-56
2024/01/06 09:58:17;;;;;;;18.55;9.13;;;;;;;;;;4947893;29;20293;-57
2024/01/06 10:00:42;;;;;;;15.87;7.73;;;;;;;;;;4963276;29;20035;-56
2024/01/06 10:03:08;;;;;;;14.40;7.23;;;;;;;;;;4959456;29;20337;-59
2024/01/06 10:05:33;;;;;;;15.23;7.25;;;;;;;;;;4959102;29;20028;-57
2024/01/06 10:07:59;;;;;;;14.80;7.43;;;;;;;;;;4960947;29;20050;-58
2024/01/06 10:10:24;;;;;;;19.60;8.23;;;;;;;;;;4968197;29;20065;-59
2024/01/06 10:12:52;;;;;;;15.10;7.97;;;;;;;;;;4959754;29;20024;-59
2024/01/06 10:15:17;;;;;;;14.73;6.93;;;;;;;;;;4942309;29;20039;-58
2024/01/06 10:17:43;;;;;;;15.05;6.53;;;;;;;;;;4959192;29;20273;-59
2024/01/06 10:20:12;;;;;;;12.50;7.10;;;;;;;;;;4964371;29;20046;-54
2024/01/06 10:22:39;;;;;;;14.37;6.00;;;;;;;;;;4963615;29;20265;-57
2024/01/06 10:25:06;;;;;;;11.27;5.27;;;;;;;;;;4963864;29;20277;-57
2024/01/06 10:27:33;;;;;;;10.57;5.10;;;;;;;;;;4959571;29;20277;-58
2024/01/06 10:29:58;;;;;;;13.10;6.93;;;;;;;;;;4959836;29;20149;-58
2024/01/06 10:32:28;;;;;;;12.00;6.70;;;;;;;;;;4964876;29;20031;-56
2024/01/06 10:34:54;;;;;;;13.30;7.18;;;;;;;;;;4959494;29;20040;-58
2024/01/06 10:37:20;;;;;;;;;;;;;;;;;;4967622;29;20051;-59
2024/01/06 10:39:46;;;;;;;10.40;5.43;;;;;;;;;;4973030;29;19919;-56
2024/01/06 10:42:12;;;;;;;15.32;6.88;;;;;;;;;;4964953;29;20031;-59
2024/01/06 10:44:39;;;;;;;13.40;6.50;;;;;;;;;;4959301;29;20027;-58
2024/01/06 10:47:06;;;;;;;10.15;5.88;;;;;;;;;;4963824;29;20401;-58
2024/01/06 10:49:33;;;;;;;9.15;4.22;;;;;;;;;;4970334;29;20040;-56
2024/01/06 10:51:59;;;;;;;14.77;7.78;;;;;;;;;;4959046;29;20067;-57
2024/01/06 10:54:26;;;;;;;16.07;8.30;;;;;;;;;;4959391;29;20039;-56
2024/01/06 10:56:52;;;;;;;13.43;7.18;;;;;;;;;;4959346;29;20038;-58
2024/01/06 10:59:18;;;;;;;15.32;7.70;;;;;;;;;;4962336;29;20028;-58
2024/01/06 11:01:45;;;;;;;20.17;8.68;;;;;;;;;;4960270;29;20055;-58
2024/01/06 11:04:10;;;;;;;16.15;8.30;;;;;;;;;;4968498;29;20043;-57
2024/01/06 11:06:38;;;;;;;10.52;6.43;;;;;;;;;;4959330;29;20031;-58
2024/01/06 11:09:21;;;;;;;16.67;8.20;;;;;;;;;;4960314;29;20032;-59
2024/01/06 11:11:48;;;;;;;12.40;7.38;;;;;;;;;;4967968;29;20023;-57
2024/01/06 11:14:17;;;;;;;12.85;6.68;;;;;;;;;;4958545;29;20038;-56
2024/01/06 11:16:43;;;;;;;19.55;8.68;;;;;;;;;;4958765;29;20038;-55
2024/01/06 11:19:27;;;;;;;13.73;7.55;;;;;;;;;;4961654;29;20046;-58
2024/01/06 11:21:53;;;;;;;11.15;6.53;;;;;;;;;;4967094;29;20031;-56
2024/01/06 11:24:26;;;;;;;17.60;9.25;;;;;;;;;;4961955;29;20035;-58
2024/01/06 11:26:52;;;;;;;17.52;9.38;;;;;;;;;;4958572;29;20036;-59
2024/01/06 11:29:19;;;;;;;15.13;7.90;;;;;;;;;;4971394;29;20035;-57
2024/01/06 11:32:04;;;;;;;14.60;7.90;;;;;;;;;;4965916;29;20024;-57
2024/01/06 11:34:30;;;;;;;8.98;4.72;;;;;;;;;;4942000;29;20046;-56
2024/01/06 11:36:55;;;;;;;7.33;4.33;;;;;;;;;;4958294;29;20032;-55
2024/01/06 11:39:41;;;;;;;15.83;7.07;;;;;;;;;;4962375;29;20046;-57
2024/01/06 11:42:09;;;;;;;15.57;8.27;;;;;;;;;;4953537;29;20027;-57
2024/01/06 11:44:38;;;;;;;22.45;9.07;;;;;;;;;;4961916;29;20039;-56
2024/01/06 11:47:04;;;;;;;10.48;6.07;;;;;;;;;;4958384;29;20062;-56
2024/01/06 11:49:29;;;;;;;16.90;8.43;;;;;;;;;;4960106;29;20043;-57
2024/01/06 11:52:00;;;;;;;16.30;8.68;;;;;;;;;;4961714;29;20358;-59
2024/01/06 11:54:26;;;;;;;21.97;9.90;;;;;;;;;;4958299;29;20043;-58
2024/01/06 11:56:53;;;;;;;14.13;7.22;;;;;;;;;;4957816;29;20270;-58
2024/01/06 11:59:19;;;;;;;10.93;6.27;;;;;;;;;;4959186;29;20040;-58
2024/01/06 12:01:45;;;;;;;21.85;8.20;;;;;;;;;;4963476;29;20269;-59
2024/01/06 12:04:13;;;;;;;11.63;5.70;;;;;;;;;;4967040;29;20051;-57
2024/01/06 12:06:39;;;;;;;18.10;9.30;;;;;;;;;;4957609;29;20040;-54
2024/01/06 12:09:09;;;;;;;12.60;5.57;;;;;;;;;;4941171;29;20280;-59
2024/01/06 12:11:34;;;;;;;9.45;5.00;;;;;;;;;;4961386;28;20034;-57
2024/01/06 12:13:59;;;;;;;13.73;7.43;;;;;;;;;;4966488;29;20043;-58
2024/01/06 12:16:28;;;;;;;12.33;7.13;;;;;;;;;;4957814;29;20020;-59
2024/01/06 12:18:59;;;;;;;14.20;6.40;;;;;;;;;;4959023;29;20047;-57
2024/01/06 12:21:24;;;;;;;16.20;7.95;;;;;;;;;;4958358;29;20051;-53
2024/01/06 12:23:50;;;;;;;14.50;8.57;;;;;;;;;;4959390;29;20036;-58
2024/01/06 12:26:18;;;;;;;10.55;5.68;;;;;;;;;;4965904;29;20035;-58
2024/01/06 12:28:44;;;;;;;15.63;6.73;;;;;;;;;;4958405;29;20063;-59
2024/01/06 12:31:09;;;;;;;16.80;7.15;;;;;;;;;;4957505;29;20282;-58
2024/01/06 12:33:37;;;;;;;11.87;6.60;;;;;;;;;;4957319;29;20095;-61
2024/01/06 12:36:02;;;;;;;9.67;5.33;;;;;;;;;;4967317;29;20662;-56
2024/01/06 12:38:29;;;;;;;4.82;2.83;;;;;;;;;;4969521;29;20254;-58
2024/01/06 12:40:55;;;;;;;8.93;4.47;;;;;;;;;;4959243;29;20051;-59
2024/01/06 12:43:21;;;;;;;14.75;6.43;;;;;;;;;;4962377;29;20032;-57
2024/01/06 12:45:47;;;;;;;10.93;6.43;;;;;;;;;;4957186;29;20091;-59
2024/01/06 12:48:13;;;;;;;11.90;6.05;;;;;;;;;;4961592;29;20046;-58
2024/01/06 12:50:38;;;;;;;8.80;4.63;;;;;;;;;;4971459;29;20059;-55
2024/01/06 12:53:03;;;;;;;7.43;3.77;;;;;;;;;;4969792;29;20031;-60
2024/01/06 12:55:29;;;;;;;9.40;5.20;;;;;;;;;;4957191;29;20055;-57
2024/01/06 12:57:54;;;;;;;13.43;7.27;;;;;;;;;;4957105;29;20035;-59
2024/01/06 13:00:20;;;;;;;16.90;6.78;;;;;;;;;;4949096;29;20038;-57
2024/01/06 13:02:46;;;;;;;9.45;4.05;;;;;;;;;;4959679;29;20063;-60
2024/01/06 13:05:12;;;;;;;16.07;7.77;;;;;;;;;;4963998;29;20035;-55
2024/01/06 13:07:38;;;;;;;9.48;5.15;;;;;;;;;;4959164;29;20483;-58
2024/01/06 13:10:03;;;;;;;;;;;;;;;;;;4964765;29;20035;-57
2024/01/06 13:12:30;;;;;;;14.90;6.20;;;;;;;;;;4961990;29;21380;-54
2024/01/06 13:14:55;;;;;;;12.30;6.43;;;;;;;;;;4958919;29;20043;-59
2024/01/06 13:17:20;;;;;;;22.13;10.47;;;;;;;;;;4956528;29;20055;-59
2024/01/06 13:19:45;;;;;;;15.80;9.20;;;;;;;;;;4956404;29;20027;-57
2024/01/06 13:22:11;;;;;;;15.13;8.63;;;;;;;;;;4955822;29;20032;-57
2024/01/06 13:24:36;;;;;;;19.07;8.97;;;;;;;;;;4972772;29;20086;-55
2024/01/06 13:27:03;;;;;;;15.73;8.23;;;;;;;;;;4958605;29;20031;-56
2024/01/06 13:29:29;;;;;;;14.90;8.98;;;;;;;;;;4957029;29;20266;-57
2024/01/06 13:31:55;;;;;;;16.23;8.77;;;;;;;;;;4963720;29;20024;-57
2024/01/06 13:34:21;;;;;;;16.13;9.45;;;;;;;;;;4969714;29;20039;-58
2024/01/06 13:36:47;;;;;;;17.33;9.23;;;;;;;;;;4959268;29;20038;-59
2024/01/06 13:39:20;;;;;;;18.30;9.13;;;;;;;;;;4956776;29;20062;-58
2024/01/06 13:41:47;;;;;;;15.85;8.77;;;;;;;;;;4958822;29;20282;-57
2024/01/06 13:44:13;;;;;;;16.50;9.50;;;;;;;;;;4957612;29;20099;-58
2024/01/06 13:46:38;;;;;;;18.07;7.93;;;;;;;;;;4958296;29;20039;-56
2024/01/06 13:49:03;;;;;;;16.70;8.88;;;;;;;;;;4956698;29;20063;-62
2024/01/06 13:51:29;;;;;;;16.97;10.27;;;;;;;;;;4960722;29;20059;-58
2024/01/06 13:53:54;;;;;;;22.43;11.23;;;;;;;;;;4950533;29;20031;-59
2024/01/06 13:56:19;;;;;;;19.83;11.03;;;;;;;;;;4958203;29;20040;-58
2024/01/06 13:58:45;;;;;;;25.13;11.03;;;;;;;;;;4958698;29;20024;-59
2024/01/06 14:01:10;;;;;;;19.43;10.57;;;;;;;;;;4958905;29;20031;-59
2024/01/06 14:03:36;;;;;;;18.80;10.75;;;;;;;;;;4956378;29;20041;-59
2024/01/06 14:06:02;;;;;;;21.87;11.53;;;;;;;;;;4956406;29;20043;-58
2024/01/06 14:08:28;;;;;;;21.53;11.30;;;;;;;;;;4956146;29;20035;-55
2024/01/06 14:10:53;;;;;;;18.97;9.90;;;;;;;;;;4956066;29;20046;-59
2024/01/06 14:13:18;;;;;;;17.73;9.73;;;;;;;;;;4958824;29;20103;-58
2024/01/06 14:15:44;;;;;;;24.20;11.93;;;;;;;;;;4947709;29;20043;-58
2024/01/06 14:18:12;;;;;;;22.80;11.10;;;;;;;;;;4949302;29;20273;-59